HALYS UKBB-UKLL
Flight info
| Callsign | HALYS |
|---|---|
| Flight time | 0h 48m |
| Altitude | 32000 |
| Route | KAFEL P27 LAPVA/K0824F260 P27 GORKU |
| Aircraft | A320/M-SDE3FGHIRWY/LB1 |
Departure
| Time | 2026-05-05 11:58 |
|---|---|
| Airport | Boryspil International Airport (UKBB) |
Arrival
| Time | 2026-05-05 12:46 |
|---|---|
| Airport | Lviv International Airport (UKLL) |
| Time | Latitude | Longitude | Altitude | Speed | Heading |
|---|---|---|---|---|---|
| 2026-05-05 11:25 | 50.35063 | 30.89862 | 420 ft | 0 kts | 272° |
| 2026-05-05 11:45 | 50.35062 | 30.89866 | 420 ft | 2 kts | 272° |
| 2026-05-05 11:45 | 50.35062 | 30.89893 | 407 ft | 2 kts | 272° |
| 2026-05-05 11:46 | 50.35061 | 30.89920 | 411 ft | 2 kts | 272° |
| 2026-05-05 11:46 | 50.35060 | 30.89946 | 409 ft | 2 kts | 272° |
| 2026-05-05 11:46 | 50.35059 | 30.89972 | 409 ft | 2 kts | 272° |
| 2026-05-05 11:46 | 50.35060 | 30.89989 | 409 ft | 2 kts | 229° |
| 2026-05-05 11:47 | 50.35071 | 30.90007 | 407 ft | 2 kts | 193° |
| 2026-05-05 11:47 | 50.35073 | 30.90009 | 407 ft | 0 kts | 181° |
| 2026-05-05 11:50 | 50.35061 | 30.90008 | 409 ft | 4 kts | 181° |
| 2026-05-05 11:50 | 50.35025 | 30.90006 | 413 ft | 7 kts | 183° |
| 2026-05-05 11:50 | 50.34964 | 30.90001 | 407 ft | 10 kts | 183° |
| 2026-05-05 11:51 | 50.34897 | 30.90056 | 410 ft | 13 kts | 114° |
| 2026-05-05 11:51 | 50.34903 | 30.90204 | 414 ft | 15 kts | 54° |
| 2026-05-05 11:51 | 50.35006 | 30.90246 | 413 ft | 17 kts | 3° |
| 2026-05-05 11:51 | 50.35137 | 30.90256 | 409 ft | 20 kts | 3° |
| 2026-05-05 11:52 | 50.35287 | 30.90269 | 410 ft | 23 kts | 3° |
| 2026-05-05 11:52 | 50.35437 | 30.90279 | 407 ft | 19 kts | 2° |
| 2026-05-05 11:52 | 50.35578 | 30.90289 | 414 ft | 22 kts | 2° |
| 2026-05-05 11:52 | 50.35738 | 30.90299 | 409 ft | 25 kts | 2° |
| 2026-05-05 11:53 | 50.35886 | 30.90311 | 415 ft | 21 kts | 2° |
| 2026-05-05 11:53 | 50.36016 | 30.90325 | 415 ft | 16 kts | 13° |
| 2026-05-05 11:53 | 50.36049 | 30.90352 | 415 ft | 0 kts | 36° |
| 2026-05-05 11:54 | 50.36057 | 30.90363 | 415 ft | 5 kts | 41° |
| 2026-05-05 11:54 | 50.36059 | 30.90365 | 407 ft | 0 kts | 42° |
| 2026-05-05 11:56 | 50.36062 | 30.90370 | 408 ft | 5 kts | 43° |
| 2026-05-05 11:56 | 50.36045 | 30.90593 | 417 ft | 23 kts | 144° |
| 2026-05-05 11:56 | 50.35926 | 30.90622 | 418 ft | 17 kts | 167° |
| 2026-05-05 11:57 | 50.35846 | 30.90631 | 416 ft | 0 kts | 185° |
| 2026-05-05 11:57 | 50.35569 | 30.90611 | 412 ft | 78 kts | 183° |
| 2026-05-05 11:57 | 50.34810 | 30.90554 | 414 ft | 136 kts | 183° |
| 2026-05-05 11:58 | 50.33748 | 30.90489 | 780 ft | 154 kts | 186° |
| 2026-05-05 11:58 | 50.32679 | 30.90358 | 1542 ft | 154 kts | 187° |
| 2026-05-05 11:58 | 50.31607 | 30.90186 | 2160 ft | 160 kts | 189° |
| 2026-05-05 11:58 | 50.30420 | 30.89998 | 2524 ft | 183 kts | 186° |
| 2026-05-05 11:59 | 50.29067 | 30.89867 | 2841 ft | 208 kts | 184° |
| 2026-05-05 11:59 | 50.27532 | 30.89772 | 3325 ft | 233 kts | 183° |
| 2026-05-05 11:59 | 50.25830 | 30.89685 | 3939 ft | 254 kts | 183° |
| 2026-05-05 11:59 | 50.24061 | 30.89603 | 4862 ft | 261 kts | 184° |
| 2026-05-05 12:00 | 50.22238 | 30.89520 | 5894 ft | 265 kts | 183° |
| 2026-05-05 12:00 | 50.20383 | 30.89867 | 6783 ft | 276 kts | 164° |
| 2026-05-05 12:00 | 50.18674 | 30.91324 | 7589 ft | 287 kts | 141° |
| 2026-05-05 12:00 | 50.17457 | 30.93785 | 7896 ft | 289 kts | 117° |
| 2026-05-05 12:01 | 50.16621 | 30.96649 | 7994 ft | 290 kts | 113° |
| 2026-05-05 12:01 | 50.15970 | 30.99645 | 8375 ft | 297 kts | 97° |
| 2026-05-05 12:01 | 50.16059 | 31.02826 | 9459 ft | 294 kts | 75° |
| 2026-05-05 12:01 | 50.16860 | 31.05744 | 10345 ft | 299 kts | 55° |
| 2026-05-05 12:02 | 50.18386 | 31.08069 | 10637 ft | 320 kts | 30° |
| 2026-05-05 12:02 | 50.20556 | 31.09210 | 10889 ft | 343 kts | 6° |
| 2026-05-05 12:02 | 50.22989 | 31.08855 | 11067 ft | 366 kts | 342° |
| 2026-05-05 12:02 | 50.25220 | 31.06782 | 11360 ft | 384 kts | 318° |
| 2026-05-05 12:03 | 50.27172 | 31.03872 | 11933 ft | 391 kts | 319° |
| 2026-05-05 12:03 | 50.29324 | 31.01246 | 12620 ft | 394 kts | 326° |
| 2026-05-05 12:03 | 50.31602 | 30.98829 | 13348 ft | 397 kts | 328° |
| 2026-05-05 12:03 | 50.33917 | 30.96459 | 14049 ft | 399 kts | 327° |
| 2026-05-05 12:04 | 50.36064 | 30.93684 | 14654 ft | 404 kts | 316° |
| 2026-05-05 12:04 | 50.37845 | 30.90248 | 15246 ft | 410 kts | 304° |
| 2026-05-05 12:04 | 50.39122 | 30.86237 | 15857 ft | 415 kts | 291° |
| 2026-05-05 12:04 | 50.39817 | 30.81825 | 16430 ft | 421 kts | 279° |
| 2026-05-05 12:05 | 50.39956 | 30.77221 | 17006 ft | 425 kts | 272° |
| 2026-05-05 12:05 | 50.40005 | 30.72574 | 17596 ft | 429 kts | 272° |
| 2026-05-05 12:05 | 50.40058 | 30.67944 | 18165 ft | 432 kts | 272° |
| 2026-05-05 12:05 | 50.40115 | 30.63217 | 18687 ft | 436 kts | 272° |
| 2026-05-05 12:06 | 50.40173 | 30.58455 | 19223 ft | 438 kts | 273° |
| 2026-05-05 12:06 | 50.40229 | 30.53661 | 19750 ft | 441 kts | 272° |
| 2026-05-05 12:06 | 50.40282 | 30.48837 | 20287 ft | 443 kts | 272° |
| 2026-05-05 12:06 | 50.40330 | 30.44005 | 20857 ft | 444 kts | 272° |
| 2026-05-05 12:07 | 50.40375 | 30.39153 | 21327 ft | 447 kts | 271° |
| 2026-05-05 12:07 | 50.40420 | 30.34262 | 21741 ft | 450 kts | 272° |
| 2026-05-05 12:07 | 50.40677 | 30.29359 | 22155 ft | 453 kts | 279° |
| 2026-05-05 12:07 | 50.41367 | 30.24537 | 22571 ft | 455 kts | 287° |
| 2026-05-05 12:08 | 50.42337 | 30.19806 | 22963 ft | 457 kts | 288° |
| 2026-05-05 12:08 | 50.43315 | 30.15043 | 23371 ft | 460 kts | 288° |
| 2026-05-05 12:08 | 50.44292 | 30.10251 | 23735 ft | 463 kts | 288° |
| 2026-05-05 12:08 | 50.45271 | 30.05424 | 24071 ft | 465 kts | 288° |
| 2026-05-05 12:09 | 50.46253 | 30.00574 | 24440 ft | 467 kts | 288° |
| 2026-05-05 12:09 | 50.47237 | 29.95716 | 24834 ft | 468 kts | 288° |
| 2026-05-05 12:09 | 50.48226 | 29.90833 | 25175 ft | 471 kts | 288° |
| 2026-05-05 12:09 | 50.49218 | 29.85918 | 25514 ft | 473 kts | 288° |
| 2026-05-05 12:10 | 50.50214 | 29.80977 | 25854 ft | 476 kts | 288° |
| 2026-05-05 12:10 | 50.51212 | 29.76019 | 26279 ft | 476 kts | 288° |
| 2026-05-05 12:10 | 50.52205 | 29.71068 | 26798 ft | 474 kts | 288° |
| 2026-05-05 12:10 | 50.53192 | 29.66128 | 27314 ft | 473 kts | 288° |
| 2026-05-05 12:11 | 50.54173 | 29.61199 | 27833 ft | 472 kts | 288° |
| 2026-05-05 12:11 | 50.55151 | 29.56278 | 28384 ft | 471 kts | 288° |
| 2026-05-05 12:11 | 50.56121 | 29.51374 | 28958 ft | 469 kts | 288° |
| 2026-05-05 12:11 | 50.57084 | 29.46483 | 29525 ft | 467 kts | 289° |
| 2026-05-05 12:12 | 50.58029 | 29.41669 | 30072 ft | 466 kts | 289° |
| 2026-05-05 12:12 | 50.58937 | 29.36780 | 30542 ft | 466 kts | 283° |
| 2026-05-05 12:12 | 50.59418 | 29.31744 | 30992 ft | 467 kts | 275° |
| 2026-05-05 12:12 | 50.59383 | 29.26636 | 31458 ft | 467 kts | 266° |
| 2026-05-05 12:13 | 50.58855 | 29.21592 | 31821 ft | 469 kts | 257° |
| 2026-05-05 12:13 | 50.57840 | 29.16711 | 31911 ft | 470 kts | 249° |
| 2026-05-05 12:13 | 50.55407 | 29.07181 | 31916 ft | 468 kts | 249° |
| 2026-05-05 12:14 | 50.52975 | 28.97699 | 31920 ft | 468 kts | 249° |
| 2026-05-05 12:14 | 50.50537 | 28.88225 | 31920 ft | 468 kts | 249° |
| 2026-05-05 12:15 | 50.48094 | 28.78754 | 31923 ft | 468 kts | 249° |
| 2026-05-05 12:15 | 50.45702 | 28.69263 | 31916 ft | 467 kts | 253° |
| 2026-05-05 12:16 | 50.44119 | 28.59397 | 31918 ft | 466 kts | 258° |
| 2026-05-05 12:16 | 50.42571 | 28.49519 | 31922 ft | 466 kts | 257° |
| 2026-05-05 12:17 | 50.41000 | 28.39646 | 31918 ft | 467 kts | 258° |
| 2026-05-05 12:17 | 50.39431 | 28.29769 | 31914 ft | 467 kts | 257° |
| 2026-05-05 12:18 | 50.37858 | 28.19889 | 31918 ft | 468 kts | 257° |
| 2026-05-05 12:18 | 50.36274 | 28.10009 | 31922 ft | 468 kts | 257° |
| 2026-05-05 12:19 | 50.34688 | 28.00205 | 31921 ft | 468 kts | 256° |
| 2026-05-05 12:19 | 50.33082 | 27.90337 | 31924 ft | 468 kts | 256° |
| 2026-05-05 12:20 | 50.31472 | 27.80473 | 31922 ft | 468 kts | 256° |
| 2026-05-05 12:20 | 50.29812 | 27.70623 | 31925 ft | 468 kts | 257° |
| 2026-05-05 12:21 | 50.28517 | 27.63195 | 31929 ft | 467 kts | 255° |
| 2026-05-05 12:21 | 50.26802 | 27.53401 | 31934 ft | 467 kts | 256° |
| 2026-05-05 12:22 | 50.25096 | 27.43618 | 31933 ft | 466 kts | 256° |
| 2026-05-05 12:22 | 50.23389 | 27.33850 | 31932 ft | 466 kts | 256° |
| 2026-05-05 12:23 | 50.21698 | 27.24148 | 31927 ft | 466 kts | 256° |
| 2026-05-05 12:23 | 50.19978 | 27.14392 | 31929 ft | 466 kts | 255° |
| 2026-05-05 12:24 | 50.18218 | 27.04668 | 31934 ft | 466 kts | 252° |
| 2026-05-05 12:24 | 50.15787 | 26.95287 | 31933 ft | 466 kts | 248° |
| 2026-05-05 12:25 | 50.13303 | 26.85952 | 31933 ft | 466 kts | 249° |
| 2026-05-05 12:25 | 50.10825 | 26.76625 | 31933 ft | 466 kts | 249° |
| 2026-05-05 12:26 | 50.08344 | 26.67303 | 31927 ft | 466 kts | 249° |
| 2026-05-05 12:26 | 50.05843 | 26.57994 | 31926 ft | 466 kts | 249° |
| 2026-05-05 12:27 | 50.03331 | 26.48693 | 31923 ft | 466 kts | 248° |
| 2026-05-05 12:27 | 50.00813 | 26.39404 | 31923 ft | 466 kts | 248° |
| 2026-05-05 12:28 | 49.98235 | 26.30168 | 31932 ft | 466 kts | 248° |
| 2026-05-05 12:28 | 49.95492 | 26.21050 | 31929 ft | 466 kts | 245° |
| 2026-05-05 12:29 | 49.92709 | 26.11969 | 31931 ft | 466 kts | 246° |
| 2026-05-05 12:29 | 49.89974 | 26.02934 | 31929 ft | 466 kts | 246° |
| 2026-05-05 12:30 | 49.87233 | 25.93830 | 31931 ft | 466 kts | 246° |
| 2026-05-05 12:30 | 49.84482 | 25.84735 | 31930 ft | 466 kts | 246° |
| 2026-05-05 12:31 | 49.81713 | 25.75662 | 31930 ft | 466 kts | 246° |
| 2026-05-05 12:31 | 49.78936 | 25.66598 | 31934 ft | 466 kts | 246° |
| 2026-05-05 12:32 | 49.76163 | 25.57555 | 31937 ft | 465 kts | 246° |
| 2026-05-05 12:32 | 49.73388 | 25.48531 | 31939 ft | 465 kts | 246° |
| 2026-05-05 12:33 | 49.70603 | 25.39526 | 31656 ft | 464 kts | 245° |
| 2026-05-05 12:33 | 49.69204 | 25.35025 | 31398 ft | 465 kts | 246° |
| 2026-05-05 12:33 | 49.67803 | 25.30525 | 31144 ft | 466 kts | 246° |
| 2026-05-05 12:34 | 49.66396 | 25.26012 | 30895 ft | 467 kts | 246° |
| 2026-05-05 12:34 | 49.64988 | 25.21497 | 30542 ft | 467 kts | 246° |
| 2026-05-05 12:34 | 49.63647 | 25.16919 | 29293 ft | 471 kts | 251° |
| 2026-05-05 12:34 | 49.62833 | 25.12030 | 27919 ft | 468 kts | 264° |
| 2026-05-05 12:35 | 49.62638 | 25.07088 | 26616 ft | 456 kts | 268° |
| 2026-05-05 12:35 | 49.62517 | 25.02273 | 25413 ft | 443 kts | 269° |
| 2026-05-05 12:35 | 49.62441 | 24.99138 | 24661 ft | 443 kts | 268° |
| 2026-05-05 12:35 | 49.62331 | 24.94403 | 23555 ft | 438 kts | 268° |
| 2026-05-05 12:36 | 49.62224 | 24.89802 | 22392 ft | 422 kts | 268° |
| 2026-05-05 12:36 | 49.62119 | 24.85265 | 20445 ft | 425 kts | 268° |
| 2026-05-05 12:36 | 49.61973 | 24.79264 | 18315 ft | 419 kts | 268° |
| 2026-05-05 12:36 | 49.61860 | 24.74817 | 16660 ft | 411 kts | 267° |
| 2026-05-05 12:37 | 49.61785 | 24.71861 | 15619 ft | 406 kts | 267° |
| 2026-05-05 12:37 | 49.61675 | 24.67547 | 14193 ft | 398 kts | 267° |
| 2026-05-05 12:37 | 49.61565 | 24.63315 | 12769 ft | 391 kts | 267° |
| 2026-05-05 12:37 | 49.61456 | 24.59243 | 11404 ft | 381 kts | 266° |
| 2026-05-05 12:38 | 49.61347 | 24.55196 | 10103 ft | 373 kts | 266° |
| 2026-05-05 12:38 | 49.61243 | 24.51347 | 9528 ft | 345 kts | 266° |
| 2026-05-05 12:38 | 49.61148 | 24.47812 | 9247 ft | 315 kts | 266° |
| 2026-05-05 12:38 | 49.61060 | 24.44593 | 9093 ft | 288 kts | 265° |
| 2026-05-05 12:39 | 49.60977 | 24.41580 | 8619 ft | 277 kts | 265° |
| 2026-05-05 12:39 | 49.60895 | 24.38638 | 7997 ft | 273 kts | 265° |
| 2026-05-05 12:39 | 49.60811 | 24.35727 | 7374 ft | 270 kts | 265° |
| 2026-05-05 12:39 | 49.60727 | 24.32841 | 6697 ft | 269 kts | 265° |
| 2026-05-05 12:40 | 49.60651 | 24.29969 | 6044 ft | 268 kts | 268° |
| 2026-05-05 12:40 | 49.60942 | 24.27140 | 5389 ft | 270 kts | 286° |
| 2026-05-05 12:40 | 49.61832 | 24.24581 | 4780 ft | 273 kts | 306° |
| 2026-05-05 12:40 | 49.63142 | 24.22498 | 4260 ft | 269 kts | 313° |
| 2026-05-05 12:41 | 49.64464 | 24.20542 | 3995 ft | 254 kts | 313° |
| 2026-05-05 12:41 | 49.65660 | 24.18769 | 3960 ft | 228 kts | 312° |
| 2026-05-05 12:41 | 49.66743 | 24.17156 | 3966 ft | 207 kts | 311° |
| 2026-05-05 12:41 | 49.67752 | 24.15648 | 3968 ft | 198 kts | 311° |
| 2026-05-05 12:42 | 49.68730 | 24.14187 | 3953 ft | 192 kts | 313° |
| 2026-05-05 12:42 | 49.69667 | 24.12788 | 3800 ft | 187 kts | 312° |
| 2026-05-05 12:42 | 49.70590 | 24.11408 | 3568 ft | 182 kts | 310° |
| 2026-05-05 12:42 | 49.71480 | 24.10079 | 3330 ft | 174 kts | 310° |
| 2026-05-05 12:43 | 49.72322 | 24.08821 | 3126 ft | 164 kts | 309° |
| 2026-05-05 12:43 | 49.73131 | 24.07609 | 2900 ft | 160 kts | 309° |
| 2026-05-05 12:43 | 49.73908 | 24.06447 | 2719 ft | 152 kts | 308° |
| 2026-05-05 12:43 | 49.74652 | 24.05331 | 2513 ft | 147 kts | 308° |
| 2026-05-05 12:44 | 49.75384 | 24.04234 | 2320 ft | 146 kts | 309° |
| 2026-05-05 12:44 | 49.76097 | 24.03166 | 2153 ft | 141 kts | 308° |
| 2026-05-05 12:44 | 49.76796 | 24.02117 | 1963 ft | 139 kts | 310° |
| 2026-05-05 12:44 | 49.77490 | 24.01075 | 1781 ft | 139 kts | 311° |
| 2026-05-05 12:45 | 49.78179 | 24.00044 | 1601 ft | 136 kts | 311° |
| 2026-05-05 12:45 | 49.78857 | 23.99046 | 1370 ft | 134 kts | 310° |
| 2026-05-05 12:45 | 49.79518 | 23.98019 | 1224 ft | 136 kts | 307° |
| 2026-05-05 12:45 | 49.80193 | 23.97022 | 1090 ft | 136 kts | 308° |
| 2026-05-05 12:46 | 49.80785 | 23.96110 | 1064 ft | 84 kts | 316° |
| 2026-05-05 12:46 | 49.81047 | 23.95729 | 1064 ft | 33 kts | 315° |
| 2026-05-05 12:46 | 49.81216 | 23.95477 | 1066 ft | 34 kts | 314° |
| 2026-05-05 12:46 | 49.81321 | 23.95408 | 1066 ft | 14 kts | 24° |
| 2026-05-05 12:47 | 49.81380 | 23.95481 | 1067 ft | 10 kts | 30° |
| 2026-05-05 12:47 | 49.81454 | 23.95456 | 1067 ft | 13 kts | 329° |
| 2026-05-05 12:47 | 49.81523 | 23.95357 | 1066 ft | 6 kts | 315° |
| 2026-05-05 12:47 | 49.81563 | 23.95367 | 1066 ft | 7 kts | 56° |
| 2026-05-05 12:48 | 49.81578 | 23.95427 | 1066 ft | 0 kts | 70° |